Aviation Digital Data Service (ADDS)

Output produced by METARs form (1703 UTC 19 September 2018)
found at http://www.aviationweather.gov/metar/data/
 
K5A6 191655Z AUTO 00000KT 10SM CLR 32/19 A3002 RMK AO2 T03180189
K5A6 191635Z AUTO 00000KT 10SM CLR 32/21 A3002 RMK AO2 T03170208
K5A6 191615Z AUTO 00000KT 10SM CLR 31/21 A3003 RMK AO2 T03120205
K5A6 191555Z AUTO 00000KT 10SM CLR 31/22 A3003 RMK AO2 T03100216
K5A6 191535Z AUTO 00000KT 10SM CLR 31/21 A3003 RMK AO2 T03060214
K5A6 191515Z AUTO 00000KT 10SM CLR 30/21 A3003 RMK AO2 T02960214
K5A6 191455Z AUTO 00000KT 10SM CLR 29/22 A3003 RMK AO2 T02870222
K5A6 191435Z AUTO 00000KT 10SM CLR 27/22 A3002 RMK AO2 T02740223
K5A6 191415Z AUTO 00000KT 10SM CLR 26/22 A3002 RMK AO2 T02600219
K5A6 191355Z AUTO 00000KT 10SM CLR 25/22 A3002 RMK AO2 T02510218
K5A6 191335Z AUTO 00000KT 10SM CLR 24/22 A3001 RMK AO2 T02360218
K5A6 191315Z AUTO 00000KT 10SM CLR 22/21 A3001 RMK AO2 T02170212
K5A6 191255Z AUTO 00000KT 21/21 A3000 RMK AO2 T02090208 PWINO
K5A6 191235Z AUTO 00000KT 10SM CLR 20/20 A3000 RMK AO2 T01950195
K5A6 191155Z AUTO 00000KT 7SM CLR 19/19 A2999 RMK AO2 T01860186 10205 20186
K5A6 191135Z AUTO 00000KT 10SM CLR 19/19 A2999 RMK AO2 T01890189
K5A6 191115Z AUTO 00000KT 10SM CLR 19/19 A2998 RMK AO2 T01910191
K5A6 191055Z AUTO 00000KT 10SM CLR 19/19 A2997 RMK AO2 T01900190
K5A6 191035Z AUTO 00000KT 10SM CLR 19/19 A2997 RMK AO2 T01940194
K5A6 191015Z AUTO 00000KT 10SM CLR 20/20 A2996 RMK AO2 T01960196
K5A6 190955Z AUTO 00000KT 10SM CLR 20/20 A2996 RMK AO2 T01960196
K5A6 190935Z AUTO 00000KT 10SM CLR 20/20 A2995 RMK AO2 T01950195
K5A6 190915Z AUTO 00000KT 10SM CLR 20/20 A2995 RMK AO2 T01950195
K5A6 190855Z AUTO 00000KT 10SM CLR 20/20 A2995 RMK AO2 T01950195
K5A6 190835Z AUTO 00000KT 7SM CLR 20/20 A2995 RMK AO2 T01950195
K5A6 190815Z AUTO 00000KT 5SM BR CLR 20/20 A2995 RMK AO2 T01990199
K5A6 190755Z AUTO 00000KT 10SM CLR 20/20 A2995 RMK AO2 T01980198
K5A6 190735Z AUTO 00000KT 10SM CLR 20/20 A2995 RMK AO2 T02000200
K5A6 190715Z AUTO 00000KT 10SM CLR 20/20 A2995 RMK AO2 T02000200
K5A6 190655Z AUTO 00000KT 7SM CLR 20/20 A2995 RMK AO2 T02020202
K5A6 190635Z AUTO 00000KT 10SM CLR 20/20 A2995 RMK AO2 T02020202
K5A6 190615Z AUTO 00000KT 7SM CLR 20/20 A2995 RMK AO2 T02020202
K5A6 190555Z AUTO 00000KT 10SM CLR 20/20 A2995 RMK AO2 T02040204 10265 20202 403320200
K5A6 190535Z AUTO 00000KT 10SM CLR 21/21 A2995 RMK AO2 T02050205
K5A6 190515Z AUTO 00000KT 5SM BR CLR 20/20 A2995 RMK AO2 T02030203
K5A6 190455Z AUTO 00000KT 10SM CLR 21/21 A2995 RMK AO2 T02060206
K5A6 190435Z AUTO 00000KT 10SM CLR 21/21 A2995 RMK AO2 T02080208
K5A6 190415Z AUTO 00000KT 10SM CLR 21/21 A2995 RMK AO2 T02100210
K5A6 190355Z AUTO 00000KT 10SM CLR 21/21 A2995 RMK AO2 T02100210
K5A6 190335Z AUTO 00000KT 10SM CLR 21/21 A2995 RMK AO2 T02110211
K5A6 190315Z AUTO 00000KT 10SM CLR 22/21 A2995 RMK AO2 T02150212
K5A6 190255Z AUTO 00000KT 10SM CLR 22/22 A2995 RMK AO2 T02170217
K5A6 190235Z AUTO 00000KT 10SM CLR 22/22 A2995 RMK AO2 T02200215
K5A6 190215Z AUTO 00000KT 10SM CLR 22/22 A2995 RMK AO2 T02240223
K5A6 190155Z AUTO 00000KT 10SM CLR 23/22 A2995 RMK AO2 T02260221
K5A6 190135Z AUTO 00000KT 10SM CLR 23/22 A2994 RMK AO2 T02320219
K5A6 190115Z AUTO 00000KT 10SM CLR 24/22 A2994 RMK AO2 T02350220
K5A6 190055Z AUTO 00000KT 10SM CLR 24/22 A2993 RMK AO2 T02380217
K5A6 190035Z AUTO 00000KT 10SM CLR 24/22 A2992 RMK AO2 T02410221
K5A6 190015Z AUTO 00000KT 10SM CLR 26/21 A2992 RMK AO2 T02560213
K5A6 182355Z AUTO 00000KT 10SM CLR 27/21 A2992 RMK AO2 T02660212 10332 20266
K5A6 182335Z AUTO 00000KT 10SM CLR 29/22 A2992 RMK AO2 T02850218
K5A6 182315Z AUTO 00000KT 10SM CLR 30/22 A2992 RMK AO2 T03010221
K5A6 182255Z AUTO 00000KT 10SM CLR 32/19 A2992 RMK AO2 T03170185
K5A6 182235Z AUTO 36003KT 10SM CLR 32/18 A2992 RMK AO2 T03220178
K5A6 182215Z AUTO 00000KT 10SM CLR 32/18 A2992 RMK AO2 T03240178
K5A6 182155Z AUTO 35003KT 10SM CLR 33/17 A2993 RMK AO2 T03260170
K5A6 182135Z AUTO 35003KT 10SM CLR 33/19 A2993 RMK AO2 T03260186
K5A6 182120Z AUTO 33004KT 10SM CLR 33/20 A2993 RMK AO2 T03270195
K5A6 182010Z AUTO 01003KT 10SM CLR 33/19 A2993 RMK AO2 T03300194
K5A6 181955Z AUTO 30006KT 10SM CLR 33/20 A2993 RMK AO2 T03280196
K5A6 181935Z AUTO 00000KT 10SM CLR 33/19 A2993 RMK AO2 T03270192
K5A6 181915Z AUTO 00000KT 10SM CLR 33/19 A2994 RMK AO2 T03280192
K5A6 181855Z AUTO 00000KT 10SM CLR 33/19 A2995 RMK AO2 T03270186
K5A6 181835Z AUTO 00000KT 10SM CLR 33/19 A2996 RMK AO2 T03250194
K5A6 181810Z AUTO 00000KT 10SM CLR 32/19 A2998 RMK AO2 T03240194
K5A6 181755Z AUTO 36003KT 10SM CLR 33/20 A2998 RMK AO2 T03250197 10325 20200
K5A6 181735Z AUTO 00000KT 10SM CLR 32/20 A2999 RMK AO2 T03210197
K5A6 181715Z AUTO 00000KT 10SM CLR 32/20 A2999 RMK AO2 T03200196
K5A6 181650Z AUTO 00000KT 10SM CLR 31/20 A3000 RMK AO2 T03140198
K5A6 181635Z AUTO 00000KT 10SM CLR 32/20 A3001 RMK AO2 T03150198
K5A6 181615Z AUTO 00000KT 10SM CLR 31/20 A3001 RMK AO2 T03100199
K5A6 181555Z AUTO 00000KT 10SM CLR 31/21 A3001 RMK AO2 T03120205
K5A6 181535Z AUTO 00000KT 10SM CLR 31/19 A3001 RMK AO2 T03080193
K5A6 181515Z AUTO 00000KT 10SM CLR 30/22 A3001 RMK AO2 T03020220
K5A6 181455Z AUTO 00000KT 10SM CLR 30/21 A3001 RMK AO2 T02980212
K5A6 181435Z AUTO 00000KT 10SM CLR 29/22 A3002 RMK AO2 T02850222
K5A6 181415Z AUTO 00000KT 10SM CLR 27/23 A3002 RMK AO2 T02710227
K5A6 181355Z AUTO 00000KT 10SM CLR 25/22 A3002 RMK AO2 T02530221
K5A6 181335Z AUTO 00000KT 10SM CLR 23/22 A3001 RMK AO2 T02310220
K5A6 181315Z AUTO 00000KT 10SM CLR 22/22 A3001 RMK AO2 T02190219
K5A6 181250Z AUTO 00000KT 10SM CLR 21/21 A3001 RMK AO2 T02050205
K5A6 181235Z AUTO 00000KT 10SM CLR 20/20 A3001 RMK AO2 T02030203
K5A6 181215Z AUTO 00000KT 10SM CLR 20/20 A3000 RMK AO2 T02000200
K5A6 181155Z AUTO 00000KT 10SM CLR 20/20 A3000 RMK AO2 T02000200 10218 20200
K5A6 181135Z AUTO 00000KT 10SM CLR 20/20 A3000 RMK AO2 T02010201
K5A6 181115Z AUTO 00000KT 10SM CLR 20/20 A2999 RMK AO2 T02020202
K5A6 181055Z AUTO 00000KT 10SM CLR 20/20 A2999 RMK AO2 T02020202
K5A6 181035Z AUTO 00000KT 10SM CLR 20/20 A2999 RMK AO2 T02030203
K5A6 181015Z AUTO 00000KT 10SM CLR 20/20 A2998 RMK AO2 T02030203
K5A6 180955Z AUTO 00000KT 10SM CLR 21/21 A2998 RMK AO2 T02050205
K5A6 180935Z AUTO 00000KT 10SM CLR 21/21 A2997 RMK AO2 T02080208
K5A6 180915Z AUTO 00000KT 7SM CLR 21/21 A2997 RMK AO2 T02090209
K5A6 180855Z AUTO 00000KT 10SM CLR 21/21 A2997 RMK AO2 T02100210
K5A6 180835Z AUTO 00000KT 10SM CLR 21/21 A2997 RMK AO2 T02100210
K5A6 180815Z AUTO 00000KT 10SM CLR 21/21 A2997 RMK AO2 T02120212
K5A6 180755Z AUTO 00000KT 10SM CLR 21/21 A2997 RMK AO2 T02110211
K5A6 180735Z AUTO 00000KT 10SM CLR 22/22 A2997 RMK AO2 T02150215
K5A6 180715Z AUTO 00000KT 10SM CLR 22/22 A2997 RMK AO2 T02150215
K5A6 180655Z AUTO 00000KT 10SM CLR 22/22 A2997 RMK AO2 T02150215
K5A6 180635Z AUTO 00000KT 10SM CLR 22/22 A2997 RMK AO2 T02160216
K5A6 180615Z AUTO 00000KT 10SM CLR 22/22 A2997 RMK AO2 T02170217
K5A6 180555Z AUTO 00000KT 10SM CLR 22/22 A2997 RMK AO2 T02180218 10274 20218 403280201
K5A6 180535Z AUTO 00000KT 10SM CLR 22/22 A2997 RMK AO2 T02190219
K5A6 180515Z AUTO 00000KT 10SM CLR 22/22 A2997 RMK AO2 T02210221
K5A6 180455Z AUTO 00000KT 10SM CLR 22/22 A2997 RMK AO2 T02200220
K5A6 180435Z AUTO 00000KT 10SM CLR 23/23 A2997 RMK AO2 T02260226
K5A6 180415Z AUTO 00000KT 10SM CLR 23/23 A2997 RMK AO2 T02250225
K5A6 180355Z AUTO 00000KT 10SM CLR 23/23 A2997 RMK AO2 T02250225
K5A6 180335Z AUTO 00000KT 10SM CLR 23/23 A2997 RMK AO2 T02300230
K5A6 180315Z AUTO 00000KT 10SM CLR 23/23 A2997 RMK AO2 T02290229
K5A6 180255Z AUTO 00000KT 10SM CLR 23/23 A2996 RMK AO2 T02310231
K5A6 180235Z AUTO 00000KT 10SM CLR 23/23 A2996 RMK AO2 T02310231
K5A6 180215Z AUTO 00000KT 10SM CLR 24/24 A2995 RMK AO2 T02390237
K5A6 180155Z AUTO 00000KT 10SM CLR 24/24 A2995 RMK AO2 T02390237
K5A6 180135Z AUTO 00000KT 10SM CLR 24/24 A2994 RMK AO2 T02430240
K5A6 180115Z AUTO 00000KT 10SM CLR 25/24 A2994 RMK AO2 T02470237
K5A6 180055Z AUTO 00000KT 10SM CLR 25/24 A2993 RMK AO2 T02510237
K5A6 180035Z AUTO 00000KT 10SM CLR 26/23 A2992 RMK AO2 T02560234
K5A6 180015Z AUTO 00000KT 10SM CLR 27/23 A2992 RMK AO2 T02650230
K5A6 172355Z AUTO 00000KT 10SM CLR 28/23 A2992 RMK AO2 T02760225 10328 20276
K5A6 172335Z AUTO 00000KT 10SM CLR 29/23 A2992 RMK AO2 T02890226
K5A6 172315Z AUTO 00000KT 10SM CLR 31/22 A2992 RMK AO2 T03080217
K5A6 172255Z AUTO 00000KT 10SM CLR 32/19 A2992 RMK AO2 T03180193
K5A6 172235Z AUTO 00000KT 10SM CLR 32/20 A2992 RMK AO2 T03220197
K5A6 172215Z AUTO 00000KT 10SM CLR 32/20 A2992 RMK AO2 T03230202
K5A6 172155Z AUTO 04003KT 10SM CLR 32/20 A2992 RMK AO2 T03230202
K5A6 172135Z AUTO 00000KT 10SM CLR 33/20 A2992 RMK AO2 T03250200
K5A6 172115Z AUTO 34003KT 10SM CLR 33/21 A2992 RMK AO2 T03250207
K5A6 172055Z AUTO 00000KT 10SM CLR 32/20 A2992 RMK AO2 T03210204
K5A6 172035Z AUTO 35004KT 10SM CLR 33/21 A2992 RMK AO2 T03260210
K5A6 172015Z AUTO 01004KT 10SM CLR 32/20 A2993 RMK AO2 T03180202
K5A6 171955Z AUTO 34004KT 10SM CLR 32/21 A2993 RMK AO2 T03230209
K5A6 171935Z AUTO 00000KT 10SM CLR 32/21 A2994 RMK AO2 T03210207
K5A6 171915Z AUTO 05003KT 10SM SCT048 32/21 A2994 RMK AO2 T03240210
K5A6 171855Z AUTO 34004KT 10SM CLR 32/20 A2995 RMK AO2 T03200203
K5A6 171835Z AUTO 00000KT 10SM SCT055 32/21 A2995 RMK AO2 T03180207
K5A6 171815Z AUTO 35006KT 10SM SCT055 32/21 A2996 RMK AO2 T03200214
K5A6 171755Z AUTO 01006KT 10SM SCT045 32/21 A2996 RMK AO2 T03160208 10318 20201
K5A6 171735Z AUTO 00000KT 10SM SCT045 32/21 A2997 RMK AO2 T03160208
K5A6 171715Z AUTO 00000KT 10SM SCT041 SCT048 SCT055 31/21 A2998 RMK AO2 T03060208
K5A6 171655Z AUTO 00000KT 10SM BKN041 BKN050 31/21 A2998 RMK AO2 T03070213
K5A6 171635Z AUTO 00000KT 10SM SCT039 31/21 A2999 RMK AO2 T03090208
K5A6 171615Z AUTO 00000KT 10SM CLR 30/21 A2999 RMK AO2 T03040211
K5A6 171555Z AUTO 00000KT 10SM CLR 30/21 A2999 RMK AO2 T02990212
K5A6 171530Z AUTO 00000KT 10SM CLR 30/22 A2999 RMK AO2 T02950221
K5A6 171515Z AUTO 00000KT 10SM CLR 29/22 A2999 RMK AO2 T02920220
K5A6 171455Z AUTO 00000KT 10SM CLR 28/22 A2999 RMK AO2 T02820220
K5A6 171435Z AUTO 00000KT 10SM CLR 27/22 A2998 RMK AO2 T02730216
K5A6 171415Z AUTO 00000KT 10SM CLR 27/22 A2998 RMK AO2 T02670224
K5A6 171355Z AUTO 00000KT 10SM CLR 26/22 A2997 RMK AO2 T02570223
K5A6 171335Z AUTO 00000KT 10SM CLR 25/23 A2996 RMK AO2 T02450226
K5A6 171315Z AUTO 00000KT 10SM CLR 24/22 A2996 RMK AO2 T02350220
K5A6 171255Z AUTO 00000KT 10SM CLR 22/22 A2995 RMK AO2 T02220222
K5A6 171235Z AUTO 00000KT 10SM CLR 21/21 A2995 RMK AO2 T02100210
K5A6 171215Z AUTO 00000KT 10SM CLR 21/21 A2994 RMK AO2 T02050205
K5A6 171155Z AUTO 00000KT 10SM CLR 20/20 A2993 RMK AO2 T02030203 10225 20203
K5A6 171135Z AUTO 00000KT 10SM CLR 21/21 A2992 RMK AO2 T02060206
K5A6 171115Z AUTO 00000KT 10SM CLR 21/21 A2992 RMK AO2 T02060206
K5A6 171055Z AUTO 00000KT 10SM CLR 21/21 A2992 RMK AO2 T02100210
K5A6 171035Z AUTO 00000KT 10SM CLR 21/21 A2991 RMK AO2 T02100210
K5A6 171015Z AUTO 00000KT 10SM CLR 21/21 A2991 RMK AO2 T02100210
K5A6 170955Z AUTO 02003KT 10SM CLR 21/21 A2990 RMK AO2 T02100210
K5A6 170935Z AUTO 00000KT 10SM CLR 21/21 A2991 RMK AO2 T02140214
K5A6 170915Z AUTO 00000KT 10SM CLR 21/21 A2990 RMK AO2 T02130213
K5A6 170855Z AUTO 00000KT 10SM CLR 21/21 A2990 RMK AO2 T02130213
K5A6 170835Z AUTO 00000KT 10SM CLR 21/21 A2990 RMK AO2 T02120212
K5A6 170815Z AUTO 00000KT 10SM CLR 22/22 A2990 RMK AO2 T02150215
K5A6 170755Z AUTO 00000KT 10SM CLR 22/22 A2990 RMK AO2 T02160216
K5A6 170735Z AUTO 00000KT 10SM CLR 22/22 A2990 RMK AO2 T02160216
K5A6 170715Z AUTO 00000KT 5SM BR CLR 22/22 A2990 RMK AO2 T02170217
K5A6 170655Z AUTO 00000KT 10SM CLR 22/22 A2989 RMK AO2 T02170217
K5A6 170635Z AUTO 00000KT 10SM CLR 22/22 A2989 RMK AO2 T02210221
K5A6 170615Z AUTO 00000KT 10SM CLR 22/22 A2989 RMK AO2 T02220222
K5A6 170555Z AUTO 00000KT 10SM CLR 23/23 A2989 RMK AO2 T02250225 10289 20225 403300218
K5A6 170535Z AUTO 00000KT 10SM CLR 23/23 A2989 RMK AO2 T02250225
K5A6 170515Z AUTO 00000KT 10SM CLR 23/23 A2989 RMK AO2 T02280228
K5A6 170455Z AUTO 00000KT 10SM CLR 23/23 A2990 RMK AO2 T02270227
K5A6 170435Z AUTO 00000KT 10SM CLR 23/23 A2990 RMK AO2 T02300230
K5A6 170415Z AUTO 00000KT 10SM CLR 23/23 A2990 RMK AO2 T02310231
K5A6 170355Z AUTO 00000KT 10SM CLR 23/23 A2990 RMK AO2 T02310231
K5A6 170335Z AUTO 00000KT 10SM CLR 23/23 A2991 RMK AO2 T02320232
K5A6 170315Z AUTO 00000KT 10SM CLR 23/23 A2991 RMK AO2 T02310231
K5A6 170255Z AUTO 00000KT 10SM CLR 24/24 A2991 RMK AO2 T02350235
K5A6 170235Z AUTO 00000KT 10SM CLR 24/24 A2990 RMK AO2 T02380238
K5A6 170215Z AUTO 00000KT 10SM CLR 24/24 A2990 RMK AO2 T02390239
K5A6 170155Z AUTO 00000KT 10SM CLR 24/24 A2989 RMK AO2 T02430243
K5A6 170135Z AUTO 00000KT 10SM CLR 25/25 A2988 RMK AO2 T02470245
K5A6 170115Z AUTO 00000KT 10SM CLR 25/24 A2988 RMK AO2 T02490243
K5A6 170055Z AUTO 00000KT 10SM CLR 25/24 A2987 RMK AO2 T02530240
K5A6 170035Z AUTO 00000KT 10SM CLR 26/24 A2987 RMK AO2 T02600241
K5A6 170015Z AUTO 00000KT 10SM CLR 27/23 A2986 RMK AO2 T02720232
K5A6 162355Z AUTO 00000KT 10SM CLR 29/23 A2986 RMK AO2 T02910227 10330 20291
K5A6 162335Z AUTO 00000KT 10SM CLR 30/23 A2986 RMK AO2 T03030226
K5A6 162315Z AUTO 00000KT 10SM CLR 31/22 A2986 RMK AO2 T03110220
K5A6 162255Z AUTO 00000KT 10SM CLR 32/22 A2986 RMK AO2 T03160216
K5A6 162235Z AUTO 34004KT 10SM CLR 32/21 A2985 RMK AO2 T03200212
K5A6 162215Z AUTO 36003KT 10SM CLR 32/21 A2986 RMK AO2 T03230210
K5A6 162155Z AUTO 35005KT 10SM CLR 32/22 A2986 RMK AO2 T03240218
K5A6 162135Z AUTO 02004KT 10SM CLR 33/22 A2986 RMK AO2 T03260216
K5A6 162115Z AUTO 03006KT 10SM CLR 33/22 A2986 RMK AO2 T03280216
K5A6 162055Z AUTO 03006KT 10SM CLR 33/22 A2986 RMK AO2 T03280216
K5A6 162035Z AUTO 01006KT 10SM CLR 33/22 A2986 RMK AO2 T03270216
K5A6 162015Z AUTO 34006KT 10SM CLR 33/21 A2986 RMK AO2 T03260205
K5A6 161955Z AUTO 02003KT 10SM CLR 33/22 A2986 RMK AO2 T03260219
K5A6 161935Z AUTO 36006KT 10SM CLR 33/22 A2987 RMK AO2 T03260219
K5A6 161915Z AUTO 01005KT 10SM CLR 32/21 A2988 RMK AO2 T03230213
K5A6 161855Z AUTO 34005KT 10SM CLR 32/22 A2988 RMK AO2 T03230221
K5A6 161835Z AUTO 35006KT 10SM CLR 32/21 A2989 RMK AO2 T03180212
K5A6 161815Z AUTO 34007KT 320V030 10SM CLR 32/22 A2990 RMK AO2 T03160221
K5A6 161755Z AUTO 36004KT 10SM CLR 32/22 A2991 RMK AO2 T03170222 10317 20218
K5A6 161735Z AUTO 33005KT 10SM CLR 31/22 A2992 RMK AO2 T03130219
K5A6 161715Z AUTO 01006KT 10SM CLR 31/22 A2992 RMK AO2 T03130221